• Join FlightAware (Why Join?)
  • Login
  • US Flag 
01:55AM EDT


 

Airport Tracker/Info


-or-


 

Live Flight TrackerFlight Track Log ✈ JBU234 ✈ 30-Aug-2013 ✈ KJFK - KBTV

Flight Track Log - Related Links

Times and Time Zones

All times are in EDT time to prevent confusion due to time zone crossing. See the JBU234 flight status page for this flight to view local times or setup timezone preferences in your user account.

Time Position Orientation Groundspeed Altitude Reporting Facility
EDT Latitude Longitude Course Direction KTS MPH feet Rate Location/Type
11:08PM 40.6333 -73.8333 27° Northeast 152 175 1,800  Level New York TRACON
11:09PM 40.6000 -73.8500 201° Southwest 244 281 3,500 2,400 Climbing New York TRACON
11:10PM 40.8759 -73.6333 North  Level FlightAware Approximate
11:10PM 40.6000 -73.7667 90° East 277 319 6,700  Level New York TRACON
11:11PM 40.9636 -73.5932 21° North  Level FlightAware Approximate
11:11PM 40.6500 -73.6833 52° Northeast 300 345 9,500  Level New York TRACON
11:12PM 41.0492 -73.5450 27° Northeast  Level FlightAware Approximate
11:12PM 40.7167 -73.6000 43° Northeast 338 389 11,000  Level New York TRACON
11:13PM 41.1324 -73.4896 27° Northeast  Level FlightAware Approximate
11:14PM 40.9222 -73.4894 22° Northeast 407 468 14,200  Level Boston Center
11:15PM 41.0267 -73.4581 13° North 388 447 16,500 1,380 Climbing Boston Center
11:16PM 41.1436 -73.4214 13° North 388 447 17,000 1,080 Climbing Boston Center
11:17PM 41.2417 -73.3953 11° North 398 458 18,700 1,560 Climbing Boston Center
11:18PM 41.3586 -73.3858 North 404 465 20,200 1,140 Climbing Boston Center
11:19PM 41.4733 -73.3764 North 411 473 21,000 360 Climbing Boston Center
11:20PM 41.5797 -73.3725 North 400 460 21,000  Level Boston Center
11:21PM 41.6922 -73.3658 North 394 453 21,000  Level Boston Center
11:22PM 41.7986 -73.3561 North 394 453 21,000  Level Boston Center
11:23PM 41.9050 -73.3494 North 388 447 21,000  Level Boston Center
11:24PM 42.0133 -73.3425 North 388 447 21,000  Level Boston Center
11:25PM 42.1197 -73.3358 North 388 447 21,000  Level Boston Center
11:26PM 42.2261 -73.3261 North 383 441 21,000  Level Boston Center
11:27PM 42.3325 -73.3164 North 383 441 21,000 -480 Level Boston Center
11:28PM 42.4408 -73.3039 North 383 441 20,100 -1,140 Descending Boston Center
11:29PM 42.5431 -73.2994 North 383 441 18,800 -1,440 Descending Boston Center
11:30PM 42.6556 -73.2925 North 372 428 17,300 -1,500 Descending Boston Center
11:31PM 42.7578 -73.2828 North 362 417 15,900 -1,200 Descending Boston Center
11:32PM 42.8558 -73.2783 North 362 417 15,000 -480 Descending Boston Center
11:33PM 42.9600 -73.2686 North 370 426 15,000  Level Boston Center
11:34PM 43.0622 -73.2614 North 370 426 15,000  Level Boston Center
11:35PM 43.1708 -73.2514 North 370 426 15,000  Level Boston Center
11:36PM 43.2750 -73.2442 North 377 434 15,000 -300 Level Boston Center
11:37PM 43.3833 -73.2342 North 385 443 14,500 -600 Descending Boston Center
11:38PM 43.4814 -73.2297 North 385 443 13,800 -780 Descending Boston Center
11:39PM 43.5856 -73.2225 North 385 443 13,000 -960 Descending Boston Center
11:40PM 43.7025 -73.2125 North 385 443 12,000 -900 Descending Boston Center
11:41PM 43.8044 -73.2081 North 380 437 11,200 -540 Descending Boston Center
11:42PM 43.9089 -73.1981 North 375 432 11,000 -120 Descending Boston Center
11:43PM 43.9964 -73.1903 North 346 398 11,000 -540 Level Boston Center
11:44PM 44.0753 -73.2089 350° North 304 350 10,000 -1,260 Descending Boston Center
11:45PM 44.1481 -73.2472 339° North 279 321 8,500 -1,560 Descending Boston Center
11:46PM 44.2186 -73.2831 340° North 274 315 6,900 -1,680 Descending Boston Center
11:47PM 44.2872 -73.3131 343° North 268 308 5,200 -1,740 Descending Boston Center
11:48PM 44.3494 -73.3283 350° North 261 300 3,500 -1,140 Descending Boston Center
11:49PM 44.4203 -73.3439 351° North 261 300 3,000 -720 Descending Boston Center
11:50PM 44.4789 -73.3072 24° Northeast 236 272 2,100 -720 Descending Boston Center
11:51PM 44.5147 -73.2436 52° Northeast 209 241 1,600 -660 Descending Boston Center
11:52PM 44.4922 -73.1881 120° Southeast 122 140 800 -600 Descending Boston Center
11:53PM 44.4694 -73.1497 130° Southeast 122 140 400 -240 Descending Boston Center
11:54PM 44.4656 -73.1469 153° Southeast 96 110 400  Level Boston Center
11:55PM 44.4675 -73.1528 295° West 70 81 400  Level Boston Center
11:56PM 44.4592 -73.1381 128° Southeast 44 51 400  Level Boston Center